createdAt,value
2022-07-30T00:02:23.122Z,19.99
2022-07-30T00:07:53.971Z,19.97
2022-07-30T00:13:25.087Z,19.92
2022-07-30T00:18:56.284Z,19.88
2022-07-30T00:24:27.871Z,19.84
2022-07-30T00:29:58.893Z,19.81
2022-07-30T00:35:30.137Z,19.77
2022-07-30T00:41:01.364Z,19.74
2022-07-30T00:46:32.326Z,19.69
2022-07-30T00:52:03.653Z,19.66
2022-07-30T00:57:35.483Z,19.60
2022-07-30T01:03:07.454Z,19.57
2022-07-30T01:08:38.728Z,19.56
2022-07-30T01:14:10.480Z,19.52
2022-07-30T01:19:52.706Z,19.49
2022-07-30T01:25:34.073Z,19.46
2022-07-30T01:31:06.611Z,19.43
2022-07-30T01:36:37.886Z,19.40
2022-07-30T01:42:09.419Z,19.39
2022-07-30T01:47:42.363Z,19.33
2022-07-30T01:53:17.466Z,19.27
2022-07-30T01:58:50.277Z,19.25
2022-07-30T02:04:24.418Z,19.25
2022-07-30T02:10:02.605Z,19.26
2022-07-30T02:15:58.707Z,19.22
2022-07-30T02:21:36.615Z,19.18
2022-07-30T02:27:17.198Z,19.13
2022-07-30T02:32:49.782Z,19.10
2022-07-30T02:38:21.632Z,19.09
2022-07-30T02:43:53.755Z,19.08
2022-07-30T02:49:27.632Z,19.05
2022-07-30T02:54:59.642Z,19.03
2022-07-30T03:00:32.016Z,18.99
2022-07-30T03:06:03.835Z,18.98
2022-07-30T03:11:35.444Z,18.97
2022-07-30T03:17:07.804Z,18.95
2022-07-30T03:22:43.566Z,18.91
2022-07-30T03:28:15.835Z,18.90
2022-07-30T03:33:47.660Z,18.89
2022-07-30T03:39:19.799Z,18.88
2022-07-30T03:44:51.394Z,18.85
2022-07-30T03:50:22.677Z,18.83
2022-07-30T03:55:54.550Z,18.81
2022-07-30T04:02:06.105Z,18.77
2022-07-30T04:07:57.416Z,18.77
2022-07-30T04:13:33.726Z,18.73
2022-07-30T04:19:09.171Z,18.72
2022-07-30T04:24:41.078Z,18.71
2022-07-30T04:30:12.929Z,18.69
2022-07-30T04:35:50.686Z,18.68
2022-07-30T04:41:49.375Z,18.66
2022-07-30T04:47:34.050Z,18.64
2022-07-30T04:53:24.688Z,18.64
2022-07-30T04:59:01.192Z,18.63
2022-07-30T05:04:33.509Z,18.64
2022-07-30T05:10:05.709Z,18.66
2022-07-30T05:15:37.350Z,18.67
2022-07-30T05:21:11.216Z,18.68
2022-07-30T05:26:48.985Z,18.70
2022-07-30T05:32:25.470Z,18.71
2022-07-30T05:38:00.611Z,18.72
2022-07-30T05:43:37.092Z,18.73
2022-07-30T05:49:08.592Z,18.77
2022-07-30T05:54:40.183Z,18.77
2022-07-30T06:00:12.488Z,18.81
2022-07-30T06:05:56.330Z,18.81
2022-07-30T06:11:27.401Z,18.82
2022-07-30T06:16:58.876Z,18.85
2022-07-30T06:22:34.867Z,18.86
2022-07-30T06:28:35.227Z,18.89
2022-07-30T06:34:03.451Z,18.92
2022-07-30T06:39:53.783Z,18.95
2022-07-30T06:45:54.407Z,18.97
2022-07-30T06:51:33.488Z,18.99
2022-07-30T06:57:05.378Z,18.99
2022-07-30T07:02:39.441Z,18.99
2022-07-30T07:08:14.346Z,19.02
2022-07-30T07:13:50.728Z,19.06
2022-07-30T07:20:01.112Z,19.13
2022-07-30T07:25:22.284Z,19.18
2022-07-30T07:30:53.646Z,19.24
2022-07-30T07:36:26.319Z,19.29
2022-07-30T07:41:58.208Z,19.33
2022-07-30T07:47:32.082Z,19.36
2022-07-30T07:53:16.697Z,19.40
2022-07-30T07:58:51.070Z,19.47
2022-07-30T08:04:26.010Z,19.57
2022-07-30T08:10:27.009Z,19.63
2022-07-30T08:16:10.838Z,19.68
2022-07-30T08:22:07.288Z,19.72
2022-07-30T08:27:38.662Z,19.77
2022-07-30T08:33:10.881Z,19.75
2022-07-30T08:38:42.133Z,19.75
2022-07-30T08:44:15.901Z,19.74
2022-07-30T08:49:49.027Z,19.68
2022-07-30T08:55:26.138Z,19.61
2022-07-30T09:01:05.565Z,19.58
2022-07-30T09:06:37.608Z,19.57
2022-07-30T09:12:45.879Z,19.59
2022-07-30T09:18:36.502Z,19.64
2022-07-30T09:24:11.171Z,19.77
2022-07-30T09:30:00.996Z,19.91
2022-07-30T09:35:56.245Z,20.08
2022-07-30T09:41:46.676Z,20.23
2022-07-30T09:47:45.078Z,20.30
2022-07-30T09:53:16.326Z,20.31
2022-07-30T09:58:48.650Z,20.34
2022-07-30T10:04:31.067Z,20.40
2022-07-30T10:10:12.799Z,20.39
2022-07-30T10:15:49.873Z,20.41
2022-07-30T10:21:21.103Z,20.41
2022-07-30T10:27:15.799Z,20.20
2022-07-30T10:33:05.454Z,19.95
2022-07-30T10:38:41.716Z,19.92
2022-07-30T10:44:48.925Z,20.06
2022-07-30T10:50:26.963Z,20.39
2022-07-30T10:56:25.708Z,20.81
2022-07-30T11:01:59.952Z,20.77
2022-07-30T11:07:34.159Z,20.57
2022-07-30T11:13:07.039Z,20.41
2022-07-30T11:19:55.085Z,20.26
2022-07-30T11:25:50.309Z,20.33
2022-07-30T11:31:58.637Z,20.63
2022-07-30T11:37:32.185Z,20.67
2022-07-30T11:43:17.555Z,20.91
2022-07-30T11:48:57.562Z,21.37
2022-07-30T11:54:29.019Z,21.61
2022-07-30T12:00:00.259Z,21.49
2022-07-30T12:05:31.676Z,21.32
2022-07-30T12:11:02.677Z,21.23
2022-07-30T12:16:35.140Z,21.46
2022-07-30T12:22:06.377Z,21.71
2022-07-30T12:27:38.032Z,21.73
2022-07-30T12:33:09.237Z,21.64
2022-07-30T12:38:50.592Z,21.62
2022-07-30T12:44:42.620Z,21.54
2022-07-30T12:50:17.895Z,21.67
2022-07-30T12:55:49.079Z,21.89
2022-07-30T13:01:40.113Z,21.91
2022-07-30T13:07:13.141Z,21.80
2022-07-30T13:12:45.650Z,21.79
2022-07-30T13:18:16.961Z,21.70
2022-07-30T13:23:47.942Z,21.36
2022-07-30T13:29:18.914Z,21.10
2022-07-30T13:34:49.783Z,20.74
2022-07-30T13:40:21.010Z,20.70
2022-07-30T13:45:53.133Z,20.95
2022-07-30T13:51:24.496Z,21.13
2022-07-30T13:56:56.166Z,21.23
2022-07-30T14:02:28.164Z,21.30
2022-07-30T14:08:04.252Z,21.35
2022-07-30T14:13:35.296Z,21.43
2022-07-30T14:19:06.688Z,21.60
2022-07-30T14:24:38.139Z,21.79
2022-07-30T14:30:10.732Z,21.98
2022-07-30T14:35:41.772Z,22.09
2022-07-30T14:41:13.190Z,22.16
2022-07-30T14:46:51.805Z,22.21
2022-07-30T14:52:30.121Z,22.19
2022-07-30T14:58:01.691Z,22.19
2022-07-30T15:03:35.152Z,22.20
2022-07-30T15:09:07.214Z,22.17
2022-07-30T15:14:39.960Z,22.14
2022-07-30T15:20:12.422Z,22.11
2022-07-30T15:25:43.522Z,22.12
2022-07-30T15:31:14.616Z,22.13
2022-07-30T15:36:45.822Z,22.01
2022-07-30T15:42:16.873Z,21.71
2022-07-30T15:47:47.716Z,21.44
2022-07-30T15:53:18.738Z,21.23
2022-07-30T15:58:49.772Z,21.17
2022-07-30T16:04:20.459Z,21.18
2022-07-30T16:10:02.620Z,21.17
2022-07-30T16:15:33.902Z,20.97
2022-07-30T16:21:06.194Z,20.69
2022-07-30T16:26:37.418Z,20.47
2022-07-30T16:32:08.681Z,20.32
2022-07-30T16:37:39.516Z,20.14
2022-07-30T16:43:10.280Z,19.95
2022-07-30T16:48:41.277Z,19.78
2022-07-30T16:54:13.435Z,19.63
2022-07-30T16:59:44.367Z,19.65
2022-07-30T17:05:15.141Z,19.63
2022-07-30T17:10:47.768Z,19.56
2022-07-30T17:16:21.433Z,19.49
2022-07-30T17:21:52.412Z,19.36
2022-07-30T17:27:23.423Z,19.36
2022-07-30T17:32:54.445Z,19.29
2022-07-30T17:38:28.713Z,19.27
2022-07-30T17:43:59.957Z,19.19
2022-07-30T17:49:31.421Z,19.19
2022-07-30T17:55:03.110Z,19.19
2022-07-30T18:00:35.578Z,19.11
2022-07-30T18:06:06.970Z,19.05
2022-07-30T18:11:38.389Z,18.96
2022-07-30T18:17:14.129Z,18.82
2022-07-30T18:22:45.652Z,18.79
2022-07-30T18:28:17.038Z,18.73
2022-07-30T18:33:49.715Z,18.70
2022-07-30T18:39:21.143Z,18.65
2022-07-30T18:44:52.419Z,18.61
2022-07-30T18:50:25.037Z,18.56
2022-07-30T18:55:56.447Z,18.62
2022-07-30T19:01:27.752Z,18.89
2022-07-30T19:06:58.934Z,19.10
2022-07-30T19:12:32.391Z,19.23
2022-07-30T19:18:03.450Z,19.31
2022-07-30T19:23:34.513Z,19.36
2022-07-30T19:29:08.108Z,19.37
2022-07-30T19:34:40.758Z,19.36
2022-07-30T19:40:12.747Z,19.33
2022-07-30T19:45:47.318Z,19.33
2022-07-30T19:51:21.011Z,19.31
2022-07-30T19:56:56.378Z,19.27
2022-07-30T20:02:28.289Z,19.23
2022-07-30T20:08:00.122Z,19.18
2022-07-30T20:13:45.122Z,19.12
2022-07-30T20:19:19.477Z,19.05
2022-07-30T20:24:53.435Z,18.98
2022-07-30T20:30:25.310Z,18.91
2022-07-30T20:35:57.204Z,18.86
2022-07-30T20:41:28.385Z,18.77
2022-07-30T20:46:59.839Z,18.72
2022-07-30T20:52:40.690Z,18.67
2022-07-30T20:58:17.256Z,18.62
2022-07-30T21:03:49.741Z,18.59
2022-07-30T21:09:21.226Z,18.55
2022-07-30T21:14:53.418Z,18.47
2022-07-30T21:20:27.752Z,18.39
2022-07-30T21:26:03.819Z,18.33
2022-07-30T21:32:01.597Z,18.27
2022-07-30T21:37:36.403Z,18.22
2022-07-30T21:43:08.140Z,18.18
2022-07-30T21:48:39.752Z,18.14
2022-07-30T21:54:13.164Z,18.09
2022-07-30T21:59:48.109Z,18.06
2022-07-30T22:05:19.516Z,18.03
2022-07-30T22:10:55.787Z,18.01
2022-07-30T22:16:26.800Z,17.99
2022-07-30T22:22:03.565Z,17.95
2022-07-30T22:27:56.118Z,17.91
2022-07-30T22:33:30.520Z,17.88
2022-07-30T22:39:02.522Z,17.84
2022-07-30T22:44:45.726Z,17.80
2022-07-30T22:50:23.825Z,17.74
2022-07-30T22:55:59.310Z,17.68
2022-07-30T23:01:30.807Z,17.64
2022-07-30T23:07:03.079Z,17.59
2022-07-30T23:12:36.803Z,17.58
2022-07-30T23:18:08.635Z,17.56
2022-07-30T23:23:40.760Z,17.52
2022-07-30T23:29:15.719Z,17.50
2022-07-30T23:34:46.864Z,17.45
2022-07-30T23:40:18.827Z,17.43
2022-07-30T23:45:50.321Z,17.37
2022-07-30T23:51:21.269Z,17.34
2022-07-30T23:56:56.313Z,17.29
